sensor_id;sensor_type;location;lat;lon;timestamp;P1;durP1;ratioP1;P2;durP2;ratioP2
39324;SDS011;25037;49.488;9.900;2023-04-07T00:01:16;8.38;;;5.57;;
39324;SDS011;25037;49.488;9.900;2023-04-07T00:03:43;9.35;;;5.68;;
39324;SDS011;25037;49.488;9.900;2023-04-07T00:06:10;6.63;;;5.00;;
39324;SDS011;25037;49.488;9.900;2023-04-07T00:08:36;8.10;;;5.45;;
39324;SDS011;25037;49.488;9.900;2023-04-07T00:11:03;8.60;;;5.75;;
39324;SDS011;25037;49.488;9.900;2023-04-07T00:13:31;8.38;;;5.75;;
39324;SDS011;25037;49.488;9.900;2023-04-07T00:15:58;7.63;;;5.72;;
39324;SDS011;25037;49.488;9.900;2023-04-07T00:18:25;9.43;;;5.88;;
39324;SDS011;25037;49.488;9.900;2023-04-07T00:20:52;9.18;;;5.82;;
39324;SDS011;25037;49.488;9.900;2023-04-07T00:23:18;8.70;;;6.35;;
39324;SDS011;25037;49.488;9.900;2023-04-07T00:25:46;7.57;;;5.78;;
39324;SDS011;25037;49.488;9.900;2023-04-07T00:28:14;8.93;;;6.05;;
39324;SDS011;25037;49.488;9.900;2023-04-07T00:30:41;8.73;;;6.30;;
39324;SDS011;25037;49.488;9.900;2023-04-07T00:33:07;7.50;;;5.97;;
39324;SDS011;25037;49.488;9.900;2023-04-07T00:35:35;8.60;;;6.93;;
39324;SDS011;25037;49.488;9.900;2023-04-07T00:38:01;9.10;;;6.78;;
39324;SDS011;25037;49.488;9.900;2023-04-07T00:40:28;8.77;;;6.78;;
39324;SDS011;25037;49.488;9.900;2023-04-07T00:42:55;8.25;;;6.28;;
39324;SDS011;25037;49.488;9.900;2023-04-07T00:45:22;10.75;;;7.22;;
39324;SDS011;25037;49.488;9.900;2023-04-07T00:47:49;9.85;;;6.25;;
39324;SDS011;25037;49.488;9.900;2023-04-07T00:50:15;7.47;;;6.53;;
39324;SDS011;25037;49.488;9.900;2023-04-07T00:52:44;8.63;;;6.57;;
39324;SDS011;25037;49.488;9.900;2023-04-07T00:55:11;8.02;;;5.65;;
39324;SDS011;25037;49.488;9.900;2023-04-07T00:57:37;6.60;;;5.68;;
39324;SDS011;25037;49.488;9.900;2023-04-07T01:00:04;8.93;;;6.20;;
39324;SDS011;25037;49.488;9.900;2023-04-07T01:02:42;7.97;;;5.80;;
39324;SDS011;25037;49.488;9.900;2023-04-07T01:05:20;7.93;;;5.38;;
39324;SDS011;25037;49.488;9.900;2023-04-07T01:08:12;7.57;;;5.30;;
39324;SDS011;25037;49.488;9.900;2023-04-07T01:10:45;9.07;;;6.45;;
39324;SDS011;25037;49.488;9.900;2023-04-07T01:15:53;7.13;;;5.25;;
39324;SDS011;25037;49.488;9.900;2023-04-07T01:18:28;7.45;;;5.43;;
39324;SDS011;25037;49.488;9.900;2023-04-07T01:21:08;6.63;;;5.35;;
39324;SDS011;25037;49.488;9.900;2023-04-07T01:24:00;8.18;;;6.07;;
39324;SDS011;25037;49.488;9.900;2023-04-07T01:26:32;8.52;;;5.82;;
39324;SDS011;25037;49.488;9.900;2023-04-07T01:31:50;7.95;;;5.95;;
39324;SDS011;25037;49.488;9.900;2023-04-07T01:34:21;9.90;;;7.07;;
39324;SDS011;25037;49.488;9.900;2023-04-07T01:36:51;10.05;;;6.82;;
39324;SDS011;25037;49.488;9.900;2023-04-07T01:39:19;8.32;;;6.18;;
39324;SDS011;25037;49.488;9.900;2023-04-07T01:41:48;9.65;;;6.47;;
39324;SDS011;25037;49.488;9.900;2023-04-07T01:44:18;8.20;;;5.68;;
39324;SDS011;25037;49.488;9.900;2023-04-07T01:46:46;8.82;;;5.80;;
39324;SDS011;25037;49.488;9.900;2023-04-07T01:49:16;9.55;;;6.22;;
39324;SDS011;25037;49.488;9.900;2023-04-07T01:51:44;9.13;;;6.95;;
39324;SDS011;25037;49.488;9.900;2023-04-07T01:54:15;9.15;;;6.63;;
39324;SDS011;25037;49.488;9.900;2023-04-07T01:56:43;9.00;;;6.60;;
39324;SDS011;25037;49.488;9.900;2023-04-07T01:59:10;9.43;;;6.55;;
39324;SDS011;25037;49.488;9.900;2023-04-07T02:01:37;9.10;;;6.90;;
39324;SDS011;25037;49.488;9.900;2023-04-07T02:04:06;8.32;;;6.05;;
39324;SDS011;25037;49.488;9.900;2023-04-07T02:06:59;8.27;;;6.30;;
39324;SDS011;25037;49.488;9.900;2023-04-07T02:09:30;8.98;;;5.97;;
39324;SDS011;25037;49.488;9.900;2023-04-07T02:11:59;9.45;;;6.28;;
39324;SDS011;25037;49.488;9.900;2023-04-07T02:14:27;8.88;;;6.35;;
39324;SDS011;25037;49.488;9.900;2023-04-07T02:16:54;7.72;;;6.07;;
39324;SDS011;25037;49.488;9.900;2023-04-07T02:19:22;9.98;;;6.65;;
39324;SDS011;25037;49.488;9.900;2023-04-07T02:21:49;8.63;;;6.38;;
39324;SDS011;25037;49.488;9.900;2023-04-07T02:24:20;8.18;;;6.25;;
39324;SDS011;25037;49.488;9.900;2023-04-07T02:26:47;8.88;;;6.55;;
39324;SDS011;25037;49.488;9.900;2023-04-07T02:29:14;8.02;;;5.80;;
39324;SDS011;25037;49.488;9.900;2023-04-07T02:31:41;9.05;;;6.65;;
39324;SDS011;25037;49.488;9.900;2023-04-07T02:34:07;8.73;;;5.88;;
39324;SDS011;25037;49.488;9.900;2023-04-07T02:36:34;10.00;;;6.80;;
39324;SDS011;25037;49.488;9.900;2023-04-07T02:39:01;8.30;;;6.55;;
39324;SDS011;25037;49.488;9.900;2023-04-07T02:41:28;9.55;;;5.97;;
39324;SDS011;25037;49.488;9.900;2023-04-07T02:43:55;8.07;;;5.80;;
39324;SDS011;25037;49.488;9.900;2023-04-07T02:46:22;10.13;;;5.75;;
39324;SDS011;25037;49.488;9.900;2023-04-07T02:48:49;10.23;;;6.72;;
39324;SDS011;25037;49.488;9.900;2023-04-07T02:51:16;8.43;;;6.60;;
39324;SDS011;25037;49.488;9.900;2023-04-07T02:53:43;10.77;;;7.15;;
39324;SDS011;25037;49.488;9.900;2023-04-07T02:56:10;10.27;;;6.30;;
39324;SDS011;25037;49.488;9.900;2023-04-07T02:58:36;10.00;;;6.38;;
39324;SDS011;25037;49.488;9.900;2023-04-07T03:01:03;9.48;;;6.55;;
39324;SDS011;25037;49.488;9.900;2023-04-07T03:03:30;9.10;;;6.68;;
39324;SDS011;25037;49.488;9.900;2023-04-07T03:05:57;8.27;;;6.22;;
39324;SDS011;25037;49.488;9.900;2023-04-07T03:08:24;8.38;;;6.53;;
39324;SDS011;25037;49.488;9.900;2023-04-07T03:10:51;10.05;;;7.40;;
39324;SDS011;25037;49.488;9.900;2023-04-07T03:13:19;8.55;;;6.75;;
39324;SDS011;25037;49.488;9.900;2023-04-07T03:15:46;9.30;;;6.63;;
39324;SDS011;25037;49.488;9.900;2023-04-07T03:18:13;9.52;;;7.07;;
39324;SDS011;25037;49.488;9.900;2023-04-07T03:20:39;9.35;;;6.40;;
39324;SDS011;25037;49.488;9.900;2023-04-07T03:23:07;9.63;;;7.32;;
39324;SDS011;25037;49.488;9.900;2023-04-07T03:25:34;8.70;;;6.57;;
39324;SDS011;25037;49.488;9.900;2023-04-07T03:28:00;10.57;;;6.70;;
39324;SDS011;25037;49.488;9.900;2023-04-07T03:30:27;8.85;;;7.07;;
39324;SDS011;25037;49.488;9.900;2023-04-07T03:32:54;10.32;;;7.93;;
39324;SDS011;25037;49.488;9.900;2023-04-07T03:35:20;9.13;;;6.95;;
39324;SDS011;25037;49.488;9.900;2023-04-07T03:37:47;10.20;;;7.35;;
39324;SDS011;25037;49.488;9.900;2023-04-07T03:40:14;11.23;;;7.43;;
39324;SDS011;25037;49.488;9.900;2023-04-07T03:42:41;10.02;;;6.78;;
39324;SDS011;25037;49.488;9.900;2023-04-07T03:45:08;11.57;;;8.07;;
39324;SDS011;25037;49.488;9.900;2023-04-07T03:47:35;10.60;;;7.00;;
39324;SDS011;25037;49.488;9.900;2023-04-07T03:50:02;12.85;;;8.40;;
39324;SDS011;25037;49.488;9.900;2023-04-07T03:52:29;8.88;;;7.30;;
39324;SDS011;25037;49.488;9.900;2023-04-07T03:54:55;11.75;;;7.53;;
39324;SDS011;25037;49.488;9.900;2023-04-07T03:57:22;12.27;;;8.38;;
39324;SDS011;25037;49.488;9.900;2023-04-07T03:59:49;10.55;;;7.72;;
39324;SDS011;25037;49.488;9.900;2023-04-07T04:02:16;10.38;;;8.18;;
39324;SDS011;25037;49.488;9.900;2023-04-07T04:04:43;10.98;;;8.30;;
39324;SDS011;25037;49.488;9.900;2023-04-07T04:07:10;12.43;;;8.98;;
39324;SDS011;25037;49.488;9.900;2023-04-07T04:09:37;15.93;;;9.25;;
39324;SDS011;25037;49.488;9.900;2023-04-07T04:12:04;12.00;;;8.38;;
39324;SDS011;25037;49.488;9.900;2023-04-07T04:14:31;12.15;;;8.70;;
39324;SDS011;25037;49.488;9.900;2023-04-07T04:16:57;12.48;;;9.02;;
39324;SDS011;25037;49.488;9.900;2023-04-07T04:19:24;11.70;;;8.90;;
39324;SDS011;25037;49.488;9.900;2023-04-07T04:21:51;11.10;;;8.48;;
39324;SDS011;25037;49.488;9.900;2023-04-07T04:24:18;12.25;;;8.30;;
39324;SDS011;25037;49.488;9.900;2023-04-07T04:29:14;12.35;;;9.50;;
39324;SDS011;25037;49.488;9.900;2023-04-07T04:31:41;13.38;;;9.60;;
39324;SDS011;25037;49.488;9.900;2023-04-07T04:34:08;11.80;;;8.38;;
39324;SDS011;25037;49.488;9.900;2023-04-07T04:36:34;13.00;;;9.25;;
39324;SDS011;25037;49.488;9.900;2023-04-07T04:39:03;13.25;;;9.43;;
39324;SDS011;25037;49.488;9.900;2023-04-07T04:41:30;11.88;;;9.07;;
39324;SDS011;25037;49.488;9.900;2023-04-07T04:43:56;13.07;;;9.02;;
39324;SDS011;25037;49.488;9.900;2023-04-07T04:46:23;12.93;;;9.70;;
39324;SDS011;25037;49.488;9.900;2023-04-07T04:48:50;14.18;;;10.18;;
39324;SDS011;25037;49.488;9.900;2023-04-07T04:51:18;14.40;;;10.02;;
39324;SDS011;25037;49.488;9.900;2023-04-07T04:53:45;12.60;;;10.27;;
39324;SDS011;25037;49.488;9.900;2023-04-07T04:56:11;15.52;;;10.82;;
39324;SDS011;25037;49.488;9.900;2023-04-07T04:58:38;14.30;;;10.27;;
39324;SDS011;25037;49.488;9.900;2023-04-07T05:03:39;12.88;;;9.93;;
39324;SDS011;25037;49.488;9.900;2023-04-07T05:06:06;13.75;;;10.80;;
39324;SDS011;25037;49.488;9.900;2023-04-07T05:08:33;14.68;;;10.77;;
39324;SDS011;25037;49.488;9.900;2023-04-07T05:10:59;14.93;;;9.57;;
39324;SDS011;25037;49.488;9.900;2023-04-07T05:13:26;14.98;;;10.75;;
39324;SDS011;25037;49.488;9.900;2023-04-07T05:15:55;14.00;;;10.75;;
39324;SDS011;25037;49.488;9.900;2023-04-07T05:18:22;16.13;;;11.30;;
39324;SDS011;25037;49.488;9.900;2023-04-07T05:20:49;13.43;;;10.32;;
39324;SDS011;25037;49.488;9.900;2023-04-07T05:23:15;14.63;;;10.50;;
39324;SDS011;25037;49.488;9.900;2023-04-07T05:25:42;15.60;;;11.35;;
39324;SDS011;25037;49.488;9.900;2023-04-07T05:28:09;14.65;;;11.18;;
39324;SDS011;25037;49.488;9.900;2023-04-07T05:30:36;15.50;;;10.65;;
39324;SDS011;25037;49.488;9.900;2023-04-07T05:33:02;13.70;;;10.65;;
39324;SDS011;25037;49.488;9.900;2023-04-07T05:35:29;14.45;;;11.45;;
39324;SDS011;25037;49.488;9.900;2023-04-07T05:37:56;13.80;;;10.50;;
39324;SDS011;25037;49.488;9.900;2023-04-07T05:40:23;13.63;;;10.65;;
39324;SDS011;25037;49.488;9.900;2023-04-07T05:42:49;15.68;;;10.95;;
39324;SDS011;25037;49.488;9.900;2023-04-07T05:45:16;14.95;;;11.55;;
39324;SDS011;25037;49.488;9.900;2023-04-07T05:47:43;19.08;;;12.45;;
39324;SDS011;25037;49.488;9.900;2023-04-07T05:50:12;13.80;;;10.48;;
39324;SDS011;25037;49.488;9.900;2023-04-07T05:52:39;15.48;;;11.38;;
39324;SDS011;25037;49.488;9.900;2023-04-07T05:55:06;15.52;;;11.18;;
39324;SDS011;25037;49.488;9.900;2023-04-07T05:57:33;15.50;;;11.45;;
39324;SDS011;25037;49.488;9.900;2023-04-07T06:00:00;15.18;;;11.07;;
39324;SDS011;25037;49.488;9.900;2023-04-07T06:02:27;13.02;;;10.43;;
39324;SDS011;25037;49.488;9.900;2023-04-07T06:04:54;13.95;;;10.77;;
39324;SDS011;25037;49.488;9.900;2023-04-07T06:07:21;16.00;;;12.27;;
39324;SDS011;25037;49.488;9.900;2023-04-07T06:09:48;17.85;;;12.32;;
39324;SDS011;25037;49.488;9.900;2023-04-07T06:12:14;16.48;;;12.63;;
39324;SDS011;25037;49.488;9.900;2023-04-07T06:14:42;15.48;;;12.60;;
39324;SDS011;25037;49.488;9.900;2023-04-07T06:17:11;15.35;;;10.88;;
39324;SDS011;25037;49.488;9.900;2023-04-07T06:19:38;15.45;;;12.20;;
39324;SDS011;25037;49.488;9.900;2023-04-07T06:22:05;14.98;;;11.75;;
39324;SDS011;25037;49.488;9.900;2023-04-07T06:24:31;15.45;;;11.73;;
39324;SDS011;25037;49.488;9.900;2023-04-07T06:26:59;14.55;;;10.77;;
39324;SDS011;25037;49.488;9.900;2023-04-07T06:29:26;15.30;;;11.02;;
39324;SDS011;25037;49.488;9.900;2023-04-07T06:31:53;15.57;;;11.75;;
39324;SDS011;25037;49.488;9.900;2023-04-07T06:34:19;14.73;;;11.68;;
39324;SDS011;25037;49.488;9.900;2023-04-07T06:36:46;15.43;;;11.10;;
39324;SDS011;25037;49.488;9.900;2023-04-07T06:39:13;14.25;;;12.00;;
39324;SDS011;25037;49.488;9.900;2023-04-07T06:41:39;15.80;;;11.15;;
39324;SDS011;25037;49.488;9.900;2023-04-07T06:44:08;14.75;;;11.23;;
39324;SDS011;25037;49.488;9.900;2023-04-07T06:46:38;16.70;;;12.32;;
39324;SDS011;25037;49.488;9.900;2023-04-07T06:49:06;13.57;;;11.70;;
39324;SDS011;25037;49.488;9.900;2023-04-07T06:51:33;14.48;;;10.73;;
39324;SDS011;25037;49.488;9.900;2023-04-07T06:54:00;13.60;;;11.20;;
39324;SDS011;25037;49.488;9.900;2023-04-07T06:56:26;15.40;;;12.40;;
39324;SDS011;25037;49.488;9.900;2023-04-07T06:58:54;17.00;;;13.05;;
39324;SDS011;25037;49.488;9.900;2023-04-07T07:01:20;17.33;;;13.07;;
39324;SDS011;25037;49.488;9.900;2023-04-07T07:03:47;18.30;;;11.82;;
39324;SDS011;25037;49.488;9.900;2023-04-07T07:06:14;15.82;;;11.98;;
39324;SDS011;25037;49.488;9.900;2023-04-07T07:08:41;16.35;;;12.23;;
39324;SDS011;25037;49.488;9.900;2023-04-07T07:11:08;16.45;;;11.65;;
39324;SDS011;25037;49.488;9.900;2023-04-07T07:13:34;14.30;;;11.48;;
39324;SDS011;25037;49.488;9.900;2023-04-07T07:16:02;17.67;;;12.65;;
39324;SDS011;25037;49.488;9.900;2023-04-07T07:18:29;15.80;;;11.95;;
39324;SDS011;25037;49.488;9.900;2023-04-07T07:20:57;17.13;;;12.85;;
39324;SDS011;25037;49.488;9.900;2023-04-07T07:23:23;15.00;;;11.27;;
39324;SDS011;25037;49.488;9.900;2023-04-07T07:25:50;13.77;;;10.88;;
39324;SDS011;25037;49.488;9.900;2023-04-07T07:28:16;15.15;;;11.52;;
39324;SDS011;25037;49.488;9.900;2023-04-07T07:30:43;14.63;;;11.43;;
39324;SDS011;25037;49.488;9.900;2023-04-07T07:33:10;14.98;;;11.63;;
39324;SDS011;25037;49.488;9.900;2023-04-07T07:35:37;14.48;;;10.95;;
39324;SDS011;25037;49.488;9.900;2023-04-07T07:38:05;16.63;;;11.30;;
39324;SDS011;25037;49.488;9.900;2023-04-07T07:40:32;13.73;;;10.75;;
39324;SDS011;25037;49.488;9.900;2023-04-07T07:42:59;14.13;;;10.88;;
39324;SDS011;25037;49.488;9.900;2023-04-07T07:45:26;13.98;;;11.07;;
39324;SDS011;25037;49.488;9.900;2023-04-07T07:47:52;13.65;;;10.63;;
39324;SDS011;25037;49.488;9.900;2023-04-07T07:50:19;14.93;;;11.25;;
39324;SDS011;25037;49.488;9.900;2023-04-07T07:52:46;14.40;;;11.13;;
39324;SDS011;25037;49.488;9.900;2023-04-07T07:55:13;14.63;;;10.02;;
39324;SDS011;25037;49.488;9.900;2023-04-07T07:57:39;13.68;;;10.05;;
39324;SDS011;25037;49.488;9.900;2023-04-07T08:00:06;15.35;;;10.90;;
39324;SDS011;25037;49.488;9.900;2023-04-07T08:02:33;13.65;;;10.38;;
39324;SDS011;25037;49.488;9.900;2023-04-07T08:05:01;15.32;;;11.32;;
39324;SDS011;25037;49.488;9.900;2023-04-07T08:07:28;15.63;;;11.35;;
39324;SDS011;25037;49.488;9.900;2023-04-07T08:09:54;13.88;;;11.00;;
39324;SDS011;25037;49.488;9.900;2023-04-07T08:12:21;13.77;;;11.20;;
39324;SDS011;25037;49.488;9.900;2023-04-07T08:14:48;14.18;;;10.70;;
39324;SDS011;25037;49.488;9.900;2023-04-07T08:17:15;12.73;;;9.80;;
39324;SDS011;25037;49.488;9.900;2023-04-07T08:19:42;12.32;;;9.80;;
39324;SDS011;25037;49.488;9.900;2023-04-07T08:22:09;12.95;;;10.77;;
39324;SDS011;25037;49.488;9.900;2023-04-07T08:24:36;13.95;;;10.23;;
39324;SDS011;25037;49.488;9.900;2023-04-07T08:27:02;13.73;;;10.60;;
39324;SDS011;25037;49.488;9.900;2023-04-07T08:29:29;14.25;;;11.10;;
39324;SDS011;25037;49.488;9.900;2023-04-07T08:31:57;13.57;;;10.55;;
39324;SDS011;25037;49.488;9.900;2023-04-07T08:34:24;12.10;;;9.85;;
39324;SDS011;25037;49.488;9.900;2023-04-07T08:36:50;12.10;;;10.13;;
39324;SDS011;25037;49.488;9.900;2023-04-07T08:39:17;11.35;;;9.00;;
39324;SDS011;25037;49.488;9.900;2023-04-07T08:41:45;13.43;;;9.50;;
39324;SDS011;25037;49.488;9.900;2023-04-07T08:44:13;11.70;;;9.55;;
39324;SDS011;25037;49.488;9.900;2023-04-07T08:46:40;10.93;;;9.35;;
39324;SDS011;25037;49.488;9.900;2023-04-07T08:49:09;10.88;;;9.38;;
39324;SDS011;25037;49.488;9.900;2023-04-07T08:51:43;12.65;;;9.70;;
39324;SDS011;25037;49.488;9.900;2023-04-07T08:54:15;10.30;;;9.00;;
39324;SDS011;25037;49.488;9.900;2023-04-07T08:56:44;9.88;;;8.70;;
39324;SDS011;25037;49.488;9.900;2023-04-07T08:59:11;10.88;;;9.52;;
39324;SDS011;25037;49.488;9.900;2023-04-07T09:01:39;10.65;;;9.23;;
39324;SDS011;25037;49.488;9.900;2023-04-07T09:04:07;11.73;;;9.63;;
39324;SDS011;25037;49.488;9.900;2023-04-07T09:06:35;10.65;;;8.38;;
39324;SDS011;25037;49.488;9.900;2023-04-07T09:09:02;10.85;;;8.13;;
39324;SDS011;25037;49.488;9.900;2023-04-07T09:11:37;9.68;;;7.75;;
39324;SDS011;25037;49.488;9.900;2023-04-07T09:14:05;9.73;;;8.50;;
39324;SDS011;25037;49.488;9.900;2023-04-07T09:16:31;10.07;;;8.32;;
39324;SDS011;25037;49.488;9.900;2023-04-07T09:18:58;7.38;;;5.82;;
39324;SDS011;25037;49.488;9.900;2023-04-07T09:21:25;9.48;;;8.13;;
39324;SDS011;25037;49.488;9.900;2023-04-07T09:23:52;9.93;;;8.15;;
39324;SDS011;25037;49.488;9.900;2023-04-07T09:26:26;10.02;;;8.95;;
39324;SDS011;25037;49.488;9.900;2023-04-07T09:28:55;8.52;;;7.32;;
39324;SDS011;25037;49.488;9.900;2023-04-07T09:34:30;9.02;;;7.30;;
39324;SDS011;25037;49.488;9.900;2023-04-07T09:37:04;8.38;;;7.00;;
39324;SDS011;25037;49.488;9.900;2023-04-07T09:39:32;7.68;;;6.80;;
39324;SDS011;25037;49.488;9.900;2023-04-07T09:41:59;10.27;;;7.60;;
39324;SDS011;25037;49.488;9.900;2023-04-07T09:44:38;10.02;;;7.57;;
39324;SDS011;25037;49.488;9.900;2023-04-07T09:49:32;9.13;;;7.43;;
39324;SDS011;25037;49.488;9.900;2023-04-07T09:52:13;8.20;;;6.93;;
39324;SDS011;25037;49.488;9.900;2023-04-07T09:54:40;8.27;;;6.30;;
39324;SDS011;25037;49.488;9.900;2023-04-07T09:57:07;6.80;;;5.05;;
39324;SDS011;25037;49.488;9.900;2023-04-07T09:59:39;6.75;;;5.03;;
39324;SDS011;25037;49.488;9.900;2023-04-07T10:02:10;6.38;;;5.15;;
39324;SDS011;25037;49.488;9.900;2023-04-07T10:04:38;6.18;;;5.05;;
39324;SDS011;25037;49.488;9.900;2023-04-07T10:07:06;6.30;;;5.10;;
39324;SDS011;25037;49.488;9.900;2023-04-07T10:09:33;7.45;;;4.57;;
39324;SDS011;25037;49.488;9.900;2023-04-07T10:11:59;5.60;;;4.78;;
39324;SDS011;25037;49.488;9.900;2023-04-07T10:14:27;5.82;;;4.65;;
39324;SDS011;25037;49.488;9.900;2023-04-07T10:16:56;6.13;;;5.45;;
39324;SDS011;25037;49.488;9.900;2023-04-07T10:19:25;6.25;;;5.38;;
39324;SDS011;25037;49.488;9.900;2023-04-07T10:21:57;5.10;;;4.60;;
39324;SDS011;25037;49.488;9.900;2023-04-07T10:27:18;6.13;;;5.05;;
39324;SDS011;25037;49.488;9.900;2023-04-07T10:29:54;5.65;;;4.32;;
39324;SDS011;25037;49.488;9.900;2023-04-07T10:32:23;7.20;;;5.35;;
39324;SDS011;25037;49.488;9.900;2023-04-07T10:37:16;5.63;;;4.60;;
39324;SDS011;25037;49.488;9.900;2023-04-07T10:39:46;6.68;;;5.03;;
39324;SDS011;25037;49.488;9.900;2023-04-07T10:45:06;7.07;;;4.75;;
39324;SDS011;25037;49.488;9.900;2023-04-07T10:47:34;6.25;;;4.10;;
39324;SDS011;25037;49.488;9.900;2023-04-07T10:50:20;5.72;;;4.50;;
39324;SDS011;25037;49.488;9.900;2023-04-07T10:53:03;6.28;;;4.10;;
39324;SDS011;25037;49.488;9.900;2023-04-07T10:55:40;5.07;;;3.95;;
39324;SDS011;25037;49.488;9.900;2023-04-07T11:03:38;7.03;;;4.90;;
39324;SDS011;25037;49.488;9.900;2023-04-07T11:06:08;6.18;;;4.03;;
39324;SDS011;25037;49.488;9.900;2023-04-07T11:11:04;7.28;;;4.43;;
39324;SDS011;25037;49.488;9.900;2023-04-07T11:13:41;5.35;;;4.13;;
39324;SDS011;25037;49.488;9.900;2023-04-07T11:16:09;5.65;;;4.13;;
39324;SDS011;25037;49.488;9.900;2023-04-07T11:18:36;5.93;;;4.63;;
39324;SDS011;25037;49.488;9.900;2023-04-07T11:21:04;5.70;;;4.20;;
39324;SDS011;25037;49.488;9.900;2023-04-07T11:23:38;6.15;;;4.22;;
39324;SDS011;25037;49.488;9.900;2023-04-07T11:26:06;6.25;;;4.38;;
39324;SDS011;25037;49.488;9.900;2023-04-07T11:28:34;5.78;;;4.05;;
39324;SDS011;25037;49.488;9.900;2023-04-07T11:31:10;5.93;;;4.00;;
39324;SDS011;25037;49.488;9.900;2023-04-07T11:33:37;8.02;;;4.68;;
39324;SDS011;25037;49.488;9.900;2023-04-07T11:36:05;5.85;;;4.50;;
39324;SDS011;25037;49.488;9.900;2023-04-07T11:38:36;6.63;;;4.57;;
39324;SDS011;25037;49.488;9.900;2023-04-07T11:41:10;5.03;;;3.92;;
39324;SDS011;25037;49.488;9.900;2023-04-07T11:43:41;5.45;;;4.57;;
39324;SDS011;25037;49.488;9.900;2023-04-07T11:46:14;6.18;;;4.57;;
39324;SDS011;25037;49.488;9.900;2023-04-07T11:48:43;5.20;;;4.40;;
39324;SDS011;25037;49.488;9.900;2023-04-07T11:51:17;6.18;;;3.97;;
39324;SDS011;25037;49.488;9.900;2023-04-07T11:53:55;7.15;;;4.20;;
39324;SDS011;25037;49.488;9.900;2023-04-07T11:56:22;5.18;;;4.00;;
39324;SDS011;25037;49.488;9.900;2023-04-07T11:58:53;6.57;;;4.47;;
39324;SDS011;25037;49.488;9.900;2023-04-07T12:01:20;5.20;;;4.35;;
39324;SDS011;25037;49.488;9.900;2023-04-07T12:03:59;6.75;;;4.57;;
39324;SDS011;25037;49.488;9.900;2023-04-07T12:06:29;5.75;;;4.78;;
39324;SDS011;25037;49.488;9.900;2023-04-07T12:09:00;5.90;;;4.60;;
39324;SDS011;25037;49.488;9.900;2023-04-07T12:11:28;6.05;;;4.10;;
39324;SDS011;25037;49.488;9.900;2023-04-07T12:13:55;5.30;;;4.18;;
39324;SDS011;25037;49.488;9.900;2023-04-07T12:16:22;5.43;;;3.92;;
39324;SDS011;25037;49.488;9.900;2023-04-07T12:18:49;6.00;;;4.15;;
39324;SDS011;25037;49.488;9.900;2023-04-07T12:21:17;6.15;;;4.68;;
39324;SDS011;25037;49.488;9.900;2023-04-07T12:23:47;6.15;;;4.90;;
39324;SDS011;25037;49.488;9.900;2023-04-07T12:26:14;6.20;;;4.40;;
39324;SDS011;25037;49.488;9.900;2023-04-07T12:28:41;5.93;;;4.15;;
39324;SDS011;25037;49.488;9.900;2023-04-07T12:31:08;5.38;;;4.15;;
39324;SDS011;25037;49.488;9.900;2023-04-07T12:33:35;7.60;;;4.47;;
39324;SDS011;25037;49.488;9.900;2023-04-07T12:36:01;6.93;;;4.50;;
39324;SDS011;25037;49.488;9.900;2023-04-07T12:38:28;6.15;;;4.20;;
39324;SDS011;25037;49.488;9.900;2023-04-07T12:40:55;5.72;;;4.05;;
39324;SDS011;25037;49.488;9.900;2023-04-07T12:43:29;5.45;;;3.90;;
39324;SDS011;25037;49.488;9.900;2023-04-07T12:45:56;6.65;;;4.25;;
39324;SDS011;25037;49.488;9.900;2023-04-07T12:48:23;5.35;;;4.05;;
39324;SDS011;25037;49.488;9.900;2023-04-07T12:50:52;7.13;;;4.85;;
39324;SDS011;25037;49.488;9.900;2023-04-07T12:53:19;6.18;;;4.50;;
39324;SDS011;25037;49.488;9.900;2023-04-07T12:55:46;5.68;;;4.10;;
39324;SDS011;25037;49.488;9.900;2023-04-07T12:58:15;6.78;;;4.45;;
39324;SDS011;25037;49.488;9.900;2023-04-07T13:00:42;5.75;;;4.40;;
39324;SDS011;25037;49.488;9.900;2023-04-07T13:03:09;7.50;;;4.40;;
39324;SDS011;25037;49.488;9.900;2023-04-07T13:05:36;5.40;;;4.05;;
39324;SDS011;25037;49.488;9.900;2023-04-07T13:08:03;5.65;;;4.30;;
39324;SDS011;25037;49.488;9.900;2023-04-07T13:10:30;7.03;;;3.70;;
39324;SDS011;25037;49.488;9.900;2023-04-07T13:12:56;5.07;;;4.10;;
39324;SDS011;25037;49.488;9.900;2023-04-07T13:15:23;6.88;;;4.28;;
39324;SDS011;25037;49.488;9.900;2023-04-07T13:17:50;5.57;;;3.65;;
39324;SDS011;25037;49.488;9.900;2023-04-07T13:20:17;4.75;;;3.45;;
39324;SDS011;25037;49.488;9.900;2023-04-07T13:22:46;4.18;;;2.95;;
39324;SDS011;25037;49.488;9.900;2023-04-07T13:25:28;4.28;;;3.13;;
39324;SDS011;25037;49.488;9.900;2023-04-07T13:27:55;7.60;;;3.10;;
39324;SDS011;25037;49.488;9.900;2023-04-07T13:30:22;5.45;;;2.67;;
39324;SDS011;25037;49.488;9.900;2023-04-07T13:32:48;4.90;;;2.95;;
39324;SDS011;25037;49.488;9.900;2023-04-07T13:35:16;4.57;;;2.67;;
39324;SDS011;25037;49.488;9.900;2023-04-07T13:37:43;5.10;;;2.83;;
39324;SDS011;25037;49.488;9.900;2023-04-07T13:40:10;4.88;;;3.25;;
39324;SDS011;25037;49.488;9.900;2023-04-07T13:42:37;6.88;;;3.25;;
39324;SDS011;25037;49.488;9.900;2023-04-07T13:45:04;4.53;;;2.97;;
39324;SDS011;25037;49.488;9.900;2023-04-07T13:47:32;5.53;;;3.10;;
39324;SDS011;25037;49.488;9.900;2023-04-07T13:49:59;5.72;;;3.38;;
39324;SDS011;25037;49.488;9.900;2023-04-07T13:52:27;5.47;;;3.50;;
39324;SDS011;25037;49.488;9.900;2023-04-07T13:54:53;6.75;;;3.65;;
39324;SDS011;25037;49.488;9.900;2023-04-07T13:57:20;5.00;;;2.95;;
39324;SDS011;25037;49.488;9.900;2023-04-07T13:59:48;6.60;;;4.13;;
39324;SDS011;25037;49.488;9.900;2023-04-07T14:02:17;5.32;;;3.13;;
39324;SDS011;25037;49.488;9.900;2023-04-07T14:04:45;5.43;;;3.20;;
39324;SDS011;25037;49.488;9.900;2023-04-07T14:07:11;4.90;;;3.10;;
39324;SDS011;25037;49.488;9.900;2023-04-07T14:09:38;5.68;;;2.90;;
39324;SDS011;25037;49.488;9.900;2023-04-07T14:12:05;6.05;;;2.60;;
39324;SDS011;25037;49.488;9.900;2023-04-07T14:14:32;3.88;;;2.53;;
39324;SDS011;25037;49.488;9.900;2023-04-07T14:16:58;5.57;;;2.85;;
39324;SDS011;25037;49.488;9.900;2023-04-07T14:19:25;4.03;;;2.42;;
39324;SDS011;25037;49.488;9.900;2023-04-07T14:21:52;5.53;;;3.22;;
39324;SDS011;25037;49.488;9.900;2023-04-07T14:24:18;3.90;;;2.20;;
39324;SDS011;25037;49.488;9.900;2023-04-07T14:26:45;5.93;;;2.40;;
39324;SDS011;25037;49.488;9.900;2023-04-07T14:29:12;5.30;;;2.33;;
39324;SDS011;25037;49.488;9.900;2023-04-07T14:31:40;6.72;;;3.10;;
39324;SDS011;25037;49.488;9.900;2023-04-07T14:34:06;3.65;;;2.08;;
39324;SDS011;25037;49.488;9.900;2023-04-07T14:36:33;3.95;;;2.30;;
39324;SDS011;25037;49.488;9.900;2023-04-07T14:39:00;4.95;;;2.78;;
39324;SDS011;25037;49.488;9.900;2023-04-07T14:41:27;4.75;;;3.03;;
39324;SDS011;25037;49.488;9.900;2023-04-07T14:43:53;5.63;;;2.30;;
39324;SDS011;25037;49.488;9.900;2023-04-07T14:46:23;3.70;;;1.88;;
39324;SDS011;25037;49.488;9.900;2023-04-07T14:48:54;3.90;;;1.70;;
39324;SDS011;25037;49.488;9.900;2023-04-07T14:51:22;4.53;;;2.10;;
39324;SDS011;25037;49.488;9.900;2023-04-07T14:53:49;6.20;;;2.28;;
39324;SDS011;25037;49.488;9.900;2023-04-07T14:56:21;4.50;;;2.17;;
39324;SDS011;25037;49.488;9.900;2023-04-07T14:58:47;4.70;;;2.42;;
39324;SDS011;25037;49.488;9.900;2023-04-07T15:01:14;5.25;;;2.38;;
39324;SDS011;25037;49.488;9.900;2023-04-07T15:03:41;4.70;;;2.28;;
39324;SDS011;25037;49.488;9.900;2023-04-07T15:06:10;5.93;;;2.58;;
39324;SDS011;25037;49.488;9.900;2023-04-07T15:08:37;5.75;;;2.42;;
39324;SDS011;25037;49.488;9.900;2023-04-07T15:11:05;4.97;;;2.55;;
39324;SDS011;25037;49.488;9.900;2023-04-07T15:13:34;6.13;;;2.40;;
39324;SDS011;25037;49.488;9.900;2023-04-07T15:16:05;4.32;;;2.53;;